PAIW

Details ICAO PAIW (WAA)
Name WALES
Region USA (Alaska)
Timezone America/Nome (UTC-8.0)
Plans Departing 16
Arriving 15
Stats Elevation 22 ft / 7 m (AMSL)
Location 65.622585° -168.094939°
Runways 1
Magnetic Variation 8.626° E
Sunrise 2018-05-21 13:16:36 UTC / 2018-05-21 05:16:36 Local
Sunset 2018-05-22 09:04:16 UTC / 2018-05-22 01:04:16 Local
Advertisement - Login to hide

Runways

ID Width Length Bearing (true) Bearing (mag) Surface Threshold Offset Overrun Length
18 75 ft / 23 m 3,990 ft / 1,216 m 188.49° 179.86° Gravel 0 ft / 0 m 300 ft / 91 m
36 75 ft / 23 m 3,990 ft / 1,216 m 8.49° 359.86° Gravel 0 ft / 0 m 300 ft / 91 m

Map

Weather


0- 5 10 15 20 25 30 35+ Temperature / ° C

Clouds and Precipitation
Forecast for 2018-05-21 12:00 UTC. Updated 2 hours ago

Ground ~20,000 ft ~40,000 ft Winds

METAR

PAIW 211256Z AUTO 01016KT 6SM -SN BR OVC010 M01/M02 A2977 RMK AO2 UPE03SNB50 SLP084 P0000 T10111022 FZRANO

TAF

Not found

Frequencies

Unicom 123.00 MHz CTAF
Warning: Do not use this data for real-world aviation or navigation. No guarantee of current accuracy is given.